sensor_id;sensor_type;location;lat;lon;timestamp;pressure;altitude;pressure_sealevel;temperature;humidity
72961;BME280;61141;46.204;19.774;2023-07-13T00:01:38;100134.59;;;23.95;74.80
72961;BME280;61141;46.204;19.774;2023-07-13T00:04:41;100127.47;;;23.85;74.94
72961;BME280;61141;46.204;19.774;2023-07-13T00:07:44;100125.28;;;23.89;74.93
72961;BME280;61141;46.204;19.774;2023-07-13T00:10:51;100128.53;;;23.88;75.00
72961;BME280;61141;46.204;19.774;2023-07-13T00:13:56;100122.94;;;23.88;74.96
72961;BME280;61141;46.204;19.774;2023-07-13T00:16:59;100124.31;;;23.83;75.21
72961;BME280;61141;46.204;19.774;2023-07-13T00:20:03;100123.72;;;23.79;75.40
72961;BME280;61141;46.204;19.774;2023-07-13T00:23:07;100125.56;;;23.73;76.03
72961;BME280;61141;46.204;19.774;2023-07-13T00:26:11;100107.06;;;23.67;76.03
72961;BME280;61141;46.204;19.774;2023-07-13T00:29:15;100124.47;;;23.71;76.31
72961;BME280;61141;46.204;19.774;2023-07-13T00:32:19;100133.31;;;23.60;76.58
72961;BME280;61141;46.204;19.774;2023-07-13T00:35:22;100129.59;;;23.63;76.55
72961;BME280;61141;46.204;19.774;2023-07-13T00:38:25;100125.41;;;23.68;76.31
72961;BME280;61141;46.204;19.774;2023-07-13T00:41:28;100116.41;;;23.73;76.10
72961;BME280;61141;46.204;19.774;2023-07-13T00:44:31;100104.56;;;23.60;76.30
72961;BME280;61141;46.204;19.774;2023-07-13T00:47:34;100118.41;;;23.63;76.85
72961;BME280;61141;46.204;19.774;2023-07-13T00:50:38;100110.34;;;23.65;76.64
72961;BME280;61141;46.204;19.774;2023-07-13T00:53:42;100109.38;;;23.59;77.00
72961;BME280;61141;46.204;19.774;2023-07-13T00:57:00;100118.09;;;23.61;76.80
72961;BME280;61141;46.204;19.774;2023-07-13T01:00:06;100110.94;;;23.60;76.95
72961;BME280;61141;46.204;19.774;2023-07-13T01:03:12;100104.72;;;23.56;76.83
72961;BME280;61141;46.204;19.774;2023-07-13T01:06:15;100110.63;;;23.49;77.79
72961;BME280;61141;46.204;19.774;2023-07-13T01:09:20;100088.44;;;23.15;79.38
72961;BME280;61141;46.204;19.774;2023-07-13T01:12:24;100078.19;;;23.12;79.64
72961;BME280;61141;46.204;19.774;2023-07-13T01:15:42;100071.44;;;22.91;80.86
72961;BME280;61141;46.204;19.774;2023-07-13T01:18:47;100054.03;;;22.78;81.30
72961;BME280;61141;46.204;19.774;2023-07-13T01:21:52;100066.66;;;23.01;80.09
72961;BME280;61141;46.204;19.774;2023-07-13T01:24:55;100072.75;;;23.08;79.70
72961;BME280;61141;46.204;19.774;2023-07-13T01:27:58;100064.19;;;23.12;79.54
72961;BME280;61141;46.204;19.774;2023-07-13T01:31:01;100075.06;;;23.10;79.48
72961;BME280;61141;46.204;19.774;2023-07-13T01:34:04;100076.78;;;23.07;79.58
72961;BME280;61141;46.204;19.774;2023-07-13T01:37:09;100085.81;;;23.11;79.42
72961;BME280;61141;46.204;19.774;2023-07-13T01:40:12;100078.50;;;23.14;79.13
72961;BME280;61141;46.204;19.774;2023-07-13T01:43:15;100082.66;;;23.09;79.39
72961;BME280;61141;46.204;19.774;2023-07-13T01:46:19;100085.63;;;23.06;79.59
72961;BME280;61141;46.204;19.774;2023-07-13T01:49:25;100078.31;;;22.99;79.87
72961;BME280;61141;46.204;19.774;2023-07-13T01:52:28;100067.75;;;23.03;79.79
72961;BME280;61141;46.204;19.774;2023-07-13T01:55:34;100053.03;;;23.03;79.43
72961;BME280;61141;46.204;19.774;2023-07-13T01:58:37;100057.69;;;23.06;79.72
72961;BME280;61141;46.204;19.774;2023-07-13T02:01:40;100053.13;;;22.90;80.03
72961;BME280;61141;46.204;19.774;2023-07-13T02:04:43;100061.22;;;23.06;79.61
72961;BME280;61141;46.204;19.774;2023-07-13T02:07:46;100062.94;;;23.04;79.76
72961;BME280;61141;46.204;19.774;2023-07-13T02:10:49;100050.22;;;23.03;79.68
72961;BME280;61141;46.204;19.774;2023-07-13T02:13:52;100050.78;;;22.89;80.38
72961;BME280;61141;46.204;19.774;2023-07-13T02:16:55;100046.25;;;22.82;80.78
72961;BME280;61141;46.204;19.774;2023-07-13T02:19:58;100054.19;;;22.84;80.81
72961;BME280;61141;46.204;19.774;2023-07-13T02:23:01;100038.84;;;22.88;80.41
72961;BME280;61141;46.204;19.774;2023-07-13T02:26:04;100043.63;;;22.88;80.22
72961;BME280;61141;46.204;19.774;2023-07-13T02:29:07;100046.97;;;22.64;81.29
72961;BME280;61141;46.204;19.774;2023-07-13T02:32:10;100044.41;;;22.57;81.31
72961;BME280;61141;46.204;19.774;2023-07-13T02:35:13;100048.62;;;22.62;81.55
72961;BME280;61141;46.204;19.774;2023-07-13T02:38:16;100030.47;;;22.57;81.44
72961;BME280;61141;46.204;19.774;2023-07-13T02:41:19;100047.81;;;22.52;81.88
72961;BME280;61141;46.204;19.774;2023-07-13T02:44:21;100063.13;;;22.69;81.11
72961;BME280;61141;46.204;19.774;2023-07-13T02:47:24;100054.97;;;22.62;81.56
72961;BME280;61141;46.204;19.774;2023-07-13T02:50:27;100058.84;;;22.56;81.81
72961;BME280;61141;46.204;19.774;2023-07-13T02:53:30;100056.19;;;22.52;81.77
72961;BME280;61141;46.204;19.774;2023-07-13T02:56:33;100058.78;;;22.47;82.07
72961;BME280;61141;46.204;19.774;2023-07-13T02:59:36;100059.12;;;22.27;82.80
72961;BME280;61141;46.204;19.774;2023-07-13T03:02:39;100053.13;;;22.29;82.89
72961;BME280;61141;46.204;19.774;2023-07-13T03:05:44;100055.53;;;22.48;82.11
72961;BME280;61141;46.204;19.774;2023-07-13T03:08:48;100054.44;;;22.46;82.42
72961;BME280;61141;46.204;19.774;2023-07-13T03:11:53;100054.13;;;22.44;82.37
72961;BME280;61141;46.204;19.774;2023-07-13T03:14:58;100048.47;;;22.35;82.72
72961;BME280;61141;46.204;19.774;2023-07-13T03:18:02;100051.75;;;22.33;82.64
72961;BME280;61141;46.204;19.774;2023-07-13T03:21:05;100067.63;;;22.45;82.44
72961;BME280;61141;46.204;19.774;2023-07-13T03:27:11;100069.06;;;22.50;82.14
72961;BME280;61141;46.204;19.774;2023-07-13T03:30:15;100077.78;;;22.61;81.84
72961;BME280;61141;46.204;19.774;2023-07-13T03:33:18;100082.91;;;22.62;81.99
72961;BME280;61141;46.204;19.774;2023-07-13T03:36:24;100076.03;;;22.76;81.35
72961;BME280;61141;46.204;19.774;2023-07-13T03:39:28;100079.59;;;22.76;81.57
72961;BME280;61141;46.204;19.774;2023-07-13T03:42:32;100078.72;;;22.89;81.21
72961;BME280;61141;46.204;19.774;2023-07-13T03:45:37;100073.50;;;23.00;80.63
72961;BME280;61141;46.204;19.774;2023-07-13T03:48:43;100074.47;;;23.15;80.24
72961;BME280;61141;46.204;19.774;2023-07-13T03:51:47;100060.84;;;23.35;79.18
72961;BME280;61141;46.204;19.774;2023-07-13T03:54:54;100054.69;;;23.49;78.70
72961;BME280;61141;46.204;19.774;2023-07-13T03:58:06;100059.50;;;23.58;78.46
72961;BME280;61141;46.204;19.774;2023-07-13T04:01:24;100051.56;;;23.56;78.67
72961;BME280;61141;46.204;19.774;2023-07-13T04:04:30;100056.56;;;23.52;79.19
72961;BME280;61141;46.204;19.774;2023-07-13T04:07:33;100056.69;;;23.49;79.48
72961;BME280;61141;46.204;19.774;2023-07-13T04:10:36;100059.66;;;23.54;79.60
72961;BME280;61141;46.204;19.774;2023-07-13T04:13:39;100047.72;;;23.63;79.39
72961;BME280;61141;46.204;19.774;2023-07-13T04:16:42;100043.66;;;23.82;79.05
72961;BME280;61141;46.204;19.774;2023-07-13T04:19:45;100023.91;;;24.13;77.76
72961;BME280;61141;46.204;19.774;2023-07-13T04:22:48;100037.34;;;24.41;76.49
72961;BME280;61141;46.204;19.774;2023-07-13T04:25:52;100059.56;;;24.63;75.54
72961;BME280;61141;46.204;19.774;2023-07-13T04:28:56;100085.03;;;24.83;74.82
72961;BME280;61141;46.204;19.774;2023-07-13T04:31:59;100098.59;;;25.18;73.51
72961;BME280;61141;46.204;19.774;2023-07-13T04:35:02;100106.31;;;25.32;73.27
72961;BME280;61141;46.204;19.774;2023-07-13T04:38:05;100116.50;;;25.44;72.86
72961;BME280;61141;46.204;19.774;2023-07-13T04:41:08;100153.88;;;25.59;72.44
72961;BME280;61141;46.204;19.774;2023-07-13T04:44:11;100153.50;;;25.66;71.81
72961;BME280;61141;46.204;19.774;2023-07-13T04:47:14;100196.09;;;25.64;72.09
72961;BME280;61141;46.204;19.774;2023-07-13T04:50:17;100207.50;;;25.52;72.35
72961;BME280;61141;46.204;19.774;2023-07-13T04:53:24;100212.09;;;25.40;72.71
72961;BME280;61141;46.204;19.774;2023-07-13T04:56:27;100228.94;;;25.31;73.58
72961;BME280;61141;46.204;19.774;2023-07-13T04:59:30;100252.69;;;25.12;75.38
72961;BME280;61141;46.204;19.774;2023-07-13T05:02:33;100245.41;;;24.96;76.74
72961;BME280;61141;46.204;19.774;2023-07-13T05:05:37;100228.59;;;24.96;77.55
72961;BME280;61141;46.204;19.774;2023-07-13T05:08:39;100183.59;;;24.91;77.87
72961;BME280;61141;46.204;19.774;2023-07-13T05:11:43;100217.53;;;24.84;79.09
72961;BME280;61141;46.204;19.774;2023-07-13T05:14:46;100223.28;;;24.89;78.54
72961;BME280;61141;46.204;19.774;2023-07-13T05:17:49;100253.19;;;24.74;79.48
72961;BME280;61141;46.204;19.774;2023-07-13T05:21:04;100304.84;;;24.64;79.96
72961;BME280;61141;46.204;19.774;2023-07-13T05:24:07;100302.97;;;24.43;79.54
72961;BME280;61141;46.204;19.774;2023-07-13T05:27:26;100298.47;;;24.54;78.48
72961;BME280;61141;46.204;19.774;2023-07-13T05:30:29;100342.22;;;24.61;76.71
72961;BME280;61141;46.204;19.774;2023-07-13T05:33:32;100339.13;;;24.68;74.56
72961;BME280;61141;46.204;19.774;2023-07-13T05:36:35;100334.12;;;24.72;73.35
72961;BME280;61141;46.204;19.774;2023-07-13T05:39:37;100331.94;;;24.67;73.19
72961;BME280;61141;46.204;19.774;2023-07-13T05:42:40;100326.19;;;24.62;73.02
72961;BME280;61141;46.204;19.774;2023-07-13T05:45:43;100383.00;;;24.62;72.33
72961;BME280;61141;46.204;19.774;2023-07-13T05:48:46;100393.25;;;24.56;71.93
72961;BME280;61141;46.204;19.774;2023-07-13T05:51:49;100377.81;;;24.42;71.86
72961;BME280;61141;46.204;19.774;2023-07-13T05:54:53;100355.37;;;24.33;72.07
72961;BME280;61141;46.204;19.774;2023-07-13T05:57:56;100314.13;;;24.16;72.19
72961;BME280;61141;46.204;19.774;2023-07-13T06:01:04;100273.38;;;24.15;72.74
72961;BME280;61141;46.204;19.774;2023-07-13T06:04:07;100298.59;;;23.75;76.93
72961;BME280;61141;46.204;19.774;2023-07-13T06:07:10;100281.09;;;23.53;78.75
72961;BME280;61141;46.204;19.774;2023-07-13T06:10:13;100260.84;;;23.49;80.81
72961;BME280;61141;46.204;19.774;2023-07-13T06:13:16;100253.56;;;23.51;80.21
72961;BME280;61141;46.204;19.774;2023-07-13T06:16:19;100272.25;;;23.63;80.33
72961;BME280;61141;46.204;19.774;2023-07-13T06:19:22;100298.81;;;23.37;82.12
72961;BME280;61141;46.204;19.774;2023-07-13T06:22:25;100284.50;;;23.57;81.59
72961;BME280;61141;46.204;19.774;2023-07-13T06:25:28;100275.31;;;23.47;82.46
72961;BME280;61141;46.204;19.774;2023-07-13T06:28:31;100241.44;;;23.94;80.92
72961;BME280;61141;46.204;19.774;2023-07-13T06:31:34;100248.88;;;23.88;81.58
72961;BME280;61141;46.204;19.774;2023-07-13T06:34:37;100249.09;;;24.12;80.67
72961;BME280;61141;46.204;19.774;2023-07-13T06:37:43;100260.47;;;24.44;78.91
72961;BME280;61141;46.204;19.774;2023-07-13T06:40:46;100262.53;;;24.89;76.73
72961;BME280;61141;46.204;19.774;2023-07-13T06:43:49;100241.19;;;24.74;76.96
72961;BME280;61141;46.204;19.774;2023-07-13T06:46:52;100233.09;;;24.76;77.08
72961;BME280;61141;46.204;19.774;2023-07-13T06:49:54;100221.44;;;24.50;77.48
72961;BME280;61141;46.204;19.774;2023-07-13T06:52:57;100208.53;;;25.31;74.86
72961;BME280;61141;46.204;19.774;2023-07-13T06:56:02;100209.94;;;25.68;73.12
72961;BME280;61141;46.204;19.774;2023-07-13T06:59:05;100201.62;;;24.99;75.51
72961;BME280;61141;46.204;19.774;2023-07-13T07:02:10;100192.31;;;25.35;74.92
72961;BME280;61141;46.204;19.774;2023-07-13T07:05:13;100196.09;;;25.64;73.14
72961;BME280;61141;46.204;19.774;2023-07-13T07:08:15;100182.84;;;26.12;70.26
72961;BME280;61141;46.204;19.774;2023-07-13T07:11:22;100182.59;;;26.25;70.77
72961;BME280;61141;46.204;19.774;2023-07-13T07:14:25;100191.59;;;26.82;68.35
72961;BME280;61141;46.204;19.774;2023-07-13T07:17:28;100180.28;;;26.91;66.47
72961;BME280;61141;46.204;19.774;2023-07-13T07:20:31;100186.63;;;26.77;67.08
72961;BME280;61141;46.204;19.774;2023-07-13T07:23:35;100190.84;;;26.81;66.26
72961;BME280;61141;46.204;19.774;2023-07-13T07:26:38;100181.62;;;26.96;65.28
72961;BME280;61141;46.204;19.774;2023-07-13T07:29:44;100186.78;;;26.97;65.25
72961;BME280;61141;46.204;19.774;2023-07-13T07:32:52;100189.69;;;26.88;63.68
72961;BME280;61141;46.204;19.774;2023-07-13T07:35:59;100192.16;;;26.71;65.33
72961;BME280;61141;46.204;19.774;2023-07-13T07:39:04;100200.63;;;27.15;64.60
72961;BME280;61141;46.204;19.774;2023-07-13T07:42:07;100197.25;;;27.11;64.31
72961;BME280;61141;46.204;19.774;2023-07-13T07:45:10;100204.41;;;27.12;64.10
72961;BME280;61141;46.204;19.774;2023-07-13T07:48:14;100198.38;;;27.19;64.52
72961;BME280;61141;46.204;19.774;2023-07-13T07:51:17;100202.94;;;26.88;65.56
72961;BME280;61141;46.204;19.774;2023-07-13T07:54:20;100217.78;;;26.88;66.18
72961;BME280;61141;46.204;19.774;2023-07-13T07:57:42;100222.06;;;27.13;65.98
72961;BME280;61141;46.204;19.774;2023-07-13T08:00:48;100228.88;;;26.68;66.30
72961;BME280;61141;46.204;19.774;2023-07-13T08:03:54;100223.00;;;27.54;63.54
72961;BME280;61141;46.204;19.774;2023-07-13T08:07:00;100230.19;;;27.55;63.03
72961;BME280;61141;46.204;19.774;2023-07-13T08:10:06;100241.81;;;27.62;62.95
72961;BME280;61141;46.204;19.774;2023-07-13T08:13:09;100237.78;;;27.34;63.83
72961;BME280;61141;46.204;19.774;2023-07-13T08:16:14;100241.03;;;27.62;63.08
72961;BME280;61141;46.204;19.774;2023-07-13T08:19:17;100244.06;;;27.29;62.60
72961;BME280;61141;46.204;19.774;2023-07-13T08:22:20;100250.59;;;26.53;65.07
72961;BME280;61141;46.204;19.774;2023-07-13T08:25:22;100242.72;;;27.24;63.20
72961;BME280;61141;46.204;19.774;2023-07-13T08:28:25;100245.03;;;26.44;66.08
72961;BME280;61141;46.204;19.774;2023-07-13T08:31:28;100252.91;;;27.22;63.73
72961;BME280;61141;46.204;19.774;2023-07-13T08:34:31;100230.22;;;27.11;63.93
72961;BME280;61141;46.204;19.774;2023-07-13T08:37:34;100237.50;;;27.17;63.79
72961;BME280;61141;46.204;19.774;2023-07-13T08:40:39;100234.38;;;27.30;62.66
72961;BME280;61141;46.204;19.774;2023-07-13T08:43:46;100227.37;;;27.55;62.65
72961;BME280;61141;46.204;19.774;2023-07-13T08:46:51;100221.38;;;27.82;60.57
72961;BME280;61141;46.204;19.774;2023-07-13T08:49:55;100236.50;;;27.84;60.17
72961;BME280;61141;46.204;19.774;2023-07-13T08:53:02;100233.19;;;28.21;60.21
72961;BME280;61141;46.204;19.774;2023-07-13T08:56:12;100233.72;;;28.65;58.15
72961;BME280;61141;46.204;19.774;2023-07-13T08:59:22;100226.56;;;28.24;58.91
72961;BME280;61141;46.204;19.774;2023-07-13T09:05:42;100227.22;;;29.05;57.60
72961;BME280;61141;46.204;19.774;2023-07-13T09:15:34;100218.50;;;29.34;55.77
72961;BME280;61141;46.204;19.774;2023-07-13T09:18:42;100215.34;;;29.63;53.28
72961;BME280;61141;46.204;19.774;2023-07-13T09:21:47;100203.50;;;29.91;52.16
72961;BME280;61141;46.204;19.774;2023-07-13T09:25:00;100214.44;;;30.31;49.92
72961;BME280;61141;46.204;19.774;2023-07-13T09:28:24;100203.13;;;30.25;50.61
72961;BME280;61141;46.204;19.774;2023-07-13T09:31:53;100212.53;;;30.65;49.84
72961;BME280;61141;46.204;19.774;2023-07-13T09:34:56;100214.31;;;29.98;50.36
72961;BME280;61141;46.204;19.774;2023-07-13T09:38:14;100217.34;;;30.42;49.15
72961;BME280;61141;46.204;19.774;2023-07-13T09:41:31;100211.09;;;30.33;48.16
72961;BME280;61141;46.204;19.774;2023-07-13T09:48:12;100211.56;;;30.14;48.26
72961;BME280;61141;46.204;19.774;2023-07-13T09:51:16;100229.31;;;31.02;47.23
72961;BME280;61141;46.204;19.774;2023-07-13T09:54:21;100210.88;;;30.36;47.68
72961;BME280;61141;46.204;19.774;2023-07-13T09:57:27;100227.78;;;31.06;46.38
72961;BME280;61141;46.204;19.774;2023-07-13T10:01:03;100225.47;;;31.16;44.09
72961;BME280;61141;46.204;19.774;2023-07-13T10:04:13;100221.59;;;31.24;44.67
72961;BME280;61141;46.204;19.774;2023-07-13T10:07:15;100216.72;;;31.36;46.16
72961;BME280;61141;46.204;19.774;2023-07-13T10:10:31;100221.31;;;30.83;46.21
72961;BME280;61141;46.204;19.774;2023-07-13T10:13:37;100226.50;;;31.35;45.39
72961;BME280;61141;46.204;19.774;2023-07-13T10:16:45;100226.00;;;31.20;46.13
72961;BME280;61141;46.204;19.774;2023-07-13T10:19:48;100229.59;;;31.26;46.34
72961;BME280;61141;46.204;19.774;2023-07-13T10:22:56;100217.25;;;31.23;45.12
72961;BME280;61141;46.204;19.774;2023-07-13T10:26:01;100228.56;;;31.07;45.08
72961;BME280;61141;46.204;19.774;2023-07-13T10:29:10;100231.88;;;31.77;44.18
72961;BME280;61141;46.204;19.774;2023-07-13T10:32:14;100227.28;;;31.47;44.35
72961;BME280;61141;46.204;19.774;2023-07-13T10:35:20;100241.06;;;30.61;44.72
72961;BME280;61141;46.204;19.774;2023-07-13T10:38:25;100230.09;;;31.02;45.59
72961;BME280;61141;46.204;19.774;2023-07-13T10:41:34;100229.06;;;31.61;43.89
72961;BME280;61141;46.204;19.774;2023-07-13T10:44:38;100234.97;;;31.40;44.51
72961;BME280;61141;46.204;19.774;2023-07-13T10:47:41;100238.34;;;31.11;45.38
72961;BME280;61141;46.204;19.774;2023-07-13T10:50:46;100233.16;;;30.88;46.84
72961;BME280;61141;46.204;19.774;2023-07-13T10:54:18;100228.31;;;31.49;45.42
72961;BME280;61141;46.204;19.774;2023-07-13T10:57:24;100216.66;;;30.80;46.97
72961;BME280;61141;46.204;19.774;2023-07-13T11:00:31;100225.22;;;31.41;45.60
72961;BME280;61141;46.204;19.774;2023-07-13T11:06:53;100219.50;;;30.80;46.63
72961;BME280;61141;46.204;19.774;2023-07-13T11:10:00;100223.34;;;30.83;46.90
72961;BME280;61141;46.204;19.774;2023-07-13T11:16:48;100214.44;;;31.51;45.44
72961;BME280;61141;46.204;19.774;2023-07-13T11:19:52;100226.25;;;31.11;46.37
72961;BME280;61141;46.204;19.774;2023-07-13T11:26:39;100210.28;;;31.63;45.29
72961;BME280;61141;46.204;19.774;2023-07-13T11:29:42;100226.91;;;32.17;43.57
72961;BME280;61141;46.204;19.774;2023-07-13T11:32:50;100215.94;;;31.19;46.12
72961;BME280;61141;46.204;19.774;2023-07-13T11:39:21;100206.16;;;32.38;44.37
72961;BME280;61141;46.204;19.774;2023-07-13T11:42:26;100204.38;;;31.50;45.95
72961;BME280;61141;46.204;19.774;2023-07-13T11:45:30;100218.00;;;31.02;45.16
72961;BME280;61141;46.204;19.774;2023-07-13T11:48:49;100218.75;;;31.69;45.26
72961;BME280;61141;46.204;19.774;2023-07-13T11:51:54;100217.25;;;31.51;46.33
72961;BME280;61141;46.204;19.774;2023-07-13T11:55:00;100223.66;;;31.24;46.48
72961;BME280;61141;46.204;19.774;2023-07-13T11:58:03;100211.31;;;30.94;46.96
72961;BME280;61141;46.204;19.774;2023-07-13T12:01:15;100203.34;;;31.20;46.99
72961;BME280;61141;46.204;19.774;2023-07-13T12:04:29;100217.25;;;31.34;46.45
72961;BME280;61141;46.204;19.774;2023-07-13T12:07:36;100229.84;;;31.39;46.42
72961;BME280;61141;46.204;19.774;2023-07-13T12:10:41;100230.87;;;31.64;45.57
72961;BME280;61141;46.204;19.774;2023-07-13T12:13:44;100226.50;;;31.24;46.69
72961;BME280;61141;46.204;19.774;2023-07-13T12:16:48;100229.03;;;31.77;45.55
72961;BME280;61141;46.204;19.774;2023-07-13T12:19:52;100218.28;;;31.59;46.46
72961;BME280;61141;46.204;19.774;2023-07-13T12:22:56;100232.44;;;31.48;46.29
72961;BME280;61141;46.204;19.774;2023-07-13T12:26:02;100237.25;;;32.09;44.08
72961;BME280;61141;46.204;19.774;2023-07-13T12:29:06;100215.09;;;32.02;43.97
72961;BME280;61141;46.204;19.774;2023-07-13T12:32:17;100217.72;;;31.66;46.16
72961;BME280;61141;46.204;19.774;2023-07-13T12:35:21;100212.88;;;31.50;46.64
72961;BME280;61141;46.204;19.774;2023-07-13T12:38:25;100208.03;;;32.25;44.88
72961;BME280;61141;46.204;19.774;2023-07-13T12:41:28;100207.75;;;32.34;44.96
72961;BME280;61141;46.204;19.774;2023-07-13T12:44:31;100215.72;;;32.35;44.09
72961;BME280;61141;46.204;19.774;2023-07-13T12:47:42;100215.34;;;32.09;45.29
72961;BME280;61141;46.204;19.774;2023-07-13T12:50:47;100217.06;;;32.18;44.90
72961;BME280;61141;46.204;19.774;2023-07-13T12:54:05;100213.25;;;32.10;44.69
72961;BME280;61141;46.204;19.774;2023-07-13T12:57:16;100203.13;;;32.31;43.57
72961;BME280;61141;46.204;19.774;2023-07-13T13:00:33;100226.78;;;31.48;45.38
72961;BME280;61141;46.204;19.774;2023-07-13T13:03:39;100213.97;;;32.21;43.39
72961;BME280;61141;46.204;19.774;2023-07-13T13:06:44;100212.75;;;33.34;41.36
72961;BME280;61141;46.204;19.774;2023-07-13T13:09:47;100203.94;;;33.91;39.99
72961;BME280;61141;46.204;19.774;2023-07-13T13:12:50;100205.16;;;33.18;40.44
72961;BME280;61141;46.204;19.774;2023-07-13T13:15:53;100205.34;;;32.49;41.04
72961;BME280;61141;46.204;19.774;2023-07-13T13:18:57;100209.53;;;32.83;40.38
72961;BME280;61141;46.204;19.774;2023-07-13T13:22:01;100196.94;;;33.44;39.02
72961;BME280;61141;46.204;19.774;2023-07-13T13:25:09;100203.41;;;33.68;39.27
72961;BME280;61141;46.204;19.774;2023-07-13T13:28:14;100200.47;;;32.85;41.51
72961;BME280;61141;46.204;19.774;2023-07-13T13:31:19;100194.31;;;33.46;40.41
72961;BME280;61141;46.204;19.774;2023-07-13T13:34:23;100184.56;;;32.30;41.76
72961;BME280;61141;46.204;19.774;2023-07-13T13:37:26;100189.72;;;32.78;41.25
72961;BME280;61141;46.204;19.774;2023-07-13T13:40:29;100195.91;;;32.76;41.05
72961;BME280;61141;46.204;19.774;2023-07-13T13:43:33;100198.53;;;32.17;42.78
72961;BME280;61141;46.204;19.774;2023-07-13T13:46:36;100196.13;;;32.32;42.21
72961;BME280;61141;46.204;19.774;2023-07-13T13:49:39;100200.44;;;32.90;41.03
72961;BME280;61141;46.204;19.774;2023-07-13T13:52:42;100176.91;;;32.60;41.53
72961;BME280;61141;46.204;19.774;2023-07-13T13:55:46;100191.06;;;32.19;42.49
72961;BME280;61141;46.204;19.774;2023-07-13T13:58:49;100210.09;;;32.24;42.57
72961;BME280;61141;46.204;19.774;2023-07-13T14:01:52;100230.50;;;32.23;42.12
72961;BME280;61141;46.204;19.774;2023-07-13T14:04:58;100213.53;;;31.95;42.49
72961;BME280;61141;46.204;19.774;2023-07-13T14:08:02;100198.69;;;31.61;42.83
72961;BME280;61141;46.204;19.774;2023-07-13T14:11:05;100182.91;;;31.82;42.77
72961;BME280;61141;46.204;19.774;2023-07-13T14:14:19;100172.16;;;31.70;42.52
72961;BME280;61141;46.204;19.774;2023-07-13T14:17:25;100174.53;;;32.18;42.04
72961;BME280;61141;46.204;19.774;2023-07-13T14:20:29;100171.97;;;33.01;40.40
72961;BME280;61141;46.204;19.774;2023-07-13T14:23:32;100192.53;;;32.31;41.05
72961;BME280;61141;46.204;19.774;2023-07-13T14:26:38;100183.91;;;32.53;40.92
72961;BME280;61141;46.204;19.774;2023-07-13T14:29:42;100184.88;;;32.67;40.57
72961;BME280;61141;46.204;19.774;2023-07-13T14:32:45;100165.13;;;31.82;41.21
72961;BME280;61141;46.204;19.774;2023-07-13T14:35:50;100154.75;;;32.07;41.61
72961;BME280;61141;46.204;19.774;2023-07-13T14:38:57;100159.84;;;31.06;43.09
72961;BME280;61141;46.204;19.774;2023-07-13T14:42:00;100159.31;;;31.52;42.22
72961;BME280;61141;46.204;19.774;2023-07-13T14:45:03;100153.13;;;31.59;41.83
72961;BME280;61141;46.204;19.774;2023-07-13T14:48:14;100152.97;;;31.98;41.93
72961;BME280;61141;46.204;19.774;2023-07-13T14:51:18;100151.03;;;31.60;42.29
72961;BME280;61141;46.204;19.774;2023-07-13T14:54:21;100143.00;;;31.80;41.93
72961;BME280;61141;46.204;19.774;2023-07-13T14:57:24;100145.91;;;31.41;42.92
72961;BME280;61141;46.204;19.774;2023-07-13T15:00:28;100150.03;;;31.35;42.69
72961;BME280;61141;46.204;19.774;2023-07-13T15:03:30;100173.63;;;31.87;41.92
72961;BME280;61141;46.204;19.774;2023-07-13T15:06:53;100161.19;;;32.07;41.14
72961;BME280;61141;46.204;19.774;2023-07-13T15:09:56;100153.22;;;32.06;42.00
72961;BME280;61141;46.204;19.774;2023-07-13T15:13:01;100160.81;;;32.33;41.22
72961;BME280;61141;46.204;19.774;2023-07-13T15:16:17;100158.63;;;32.61;40.50
72961;BME280;61141;46.204;19.774;2023-07-13T15:19:22;100158.81;;;32.98;39.63
72961;BME280;61141;46.204;19.774;2023-07-13T15:22:25;100160.94;;;32.11;40.70
72961;BME280;61141;46.204;19.774;2023-07-13T15:25:31;100159.66;;;32.06;41.35
72961;BME280;61141;46.204;19.774;2023-07-13T15:28:35;100161.50;;;32.04;41.13
72961;BME280;61141;46.204;19.774;2023-07-13T15:31:38;100151.84;;;31.32;41.69
72961;BME280;61141;46.204;19.774;2023-07-13T15:34:42;100157.00;;;31.28;42.32
72961;BME280;61141;46.204;19.774;2023-07-13T15:37:45;100163.78;;;31.99;41.29
72961;BME280;61141;46.204;19.774;2023-07-13T15:40:50;100173.19;;;31.67;42.50
72961;BME280;61141;46.204;19.774;2023-07-13T15:43:55;100176.28;;;31.63;42.88
72961;BME280;61141;46.204;19.774;2023-07-13T15:47:00;100175.28;;;31.22;43.78
72961;BME280;61141;46.204;19.774;2023-07-13T15:50:12;100187.88;;;31.43;43.13
72961;BME280;61141;46.204;19.774;2023-07-13T15:53:27;100181.19;;;31.24;43.18
72961;BME280;61141;46.204;19.774;2023-07-13T15:56:34;100180.66;;;30.87;44.49
72961;BME280;61141;46.204;19.774;2023-07-13T15:59:37;100195.09;;;31.00;44.18
72961;BME280;61141;46.204;19.774;2023-07-13T16:02:40;100181.44;;;30.76;44.86
72961;BME280;61141;46.204;19.774;2023-07-13T16:05:44;100210.03;;;31.11;44.43
72961;BME280;61141;46.204;19.774;2023-07-13T16:08:48;100233.22;;;30.28;45.49
72961;BME280;61141;46.204;19.774;2023-07-13T16:11:52;100220.56;;;30.13;45.78
72961;BME280;61141;46.204;19.774;2023-07-13T16:14:55;100233.34;;;30.03;46.25
72961;BME280;61141;46.204;19.774;2023-07-13T16:17:57;100239.19;;;29.94;46.29
72961;BME280;61141;46.204;19.774;2023-07-13T16:21:00;100232.88;;;30.10;45.80
72961;BME280;61141;46.204;19.774;2023-07-13T16:24:04;100234.66;;;30.07;45.98
72961;BME280;61141;46.204;19.774;2023-07-13T16:27:09;100236.06;;;30.34;45.66